< Typhoon 196631 1966 Season Typhoon 196633 >
Typhoon 196632 (NO-NAME)
General InformationTrack Information on Google Maps || Disaster Info.ResourceGoogle EarthGE AnimationAtom FeedGeoJSON
Detalied Best Track (Time Zone = UTC)
Year Month Day Hour Lat. Long. Pressure (hPa) Wind (kt) Class Image Chart
1966 10 28 18 10.0 161.1 1005 0 2 -- Chart
1966 10 29 00 10.1 160.0 1005 0 2 -- Chart
1966 10 29 06 10.3 159.1 1004 0 2 -- Chart
1966 10 29 12 10.4 158.2 1004 0 2 -- Chart
1966 10 29 18 10.5 157.1 1002 0 2 -- Chart
1966 10 30 00 10.5 156.2 1002 0 2 -- Chart
1966 10 30 06 10.5 155.2 1000 0 2 -- Chart
1966 10 30 12 10.5 154.2 1004 0 2 -- Chart
1966 10 30 18 10.6 153.1 1000 0 2 -- Chart
1966 10 31 00 10.7 152.3 1000 0 2 -- Chart
1966 10 31 06 10.7 151.3 1000 0 2 -- Chart
1966 10 31 12 10.8 150.6 1000 0 2 -- Chart
1966 10 31 18 10.8 149.8 995 0 9 -- Chart
1966 11 1 00 12.4 150.6 995 0 9 -- Chart
1966 11 1 06 13.2 151.1 998 0 9 -- Chart
1966 11 1 12 14.1 151.6 998 0 9 -- Chart
1966 11 1 18 15.3 152.2 998 0 9 -- Chart
1966 11 2 00 16.4 152.7 998 0 9 -- Chart
1966 11 2 06 17.5 153.3 998 0 9 -- Chart
1966 11 2 12 18.7 153.8 998 0 9 -- Chart
1966 11 2 18 19.7 154.4 1000 0 2 -- Chart
1966 11 3 00 21.0 155.0 1000 0 2 -- Chart
Japan Meteorological Agency Best Track Data | Correction Date : 1989-06-01
< Typhoon 196631 1966 Season Typhoon 196633 >

Help